createdAt,value
2022-11-11T00:00:40.632Z,9.309004
2022-11-11T00:01:40.583Z,9.308744
2022-11-11T00:02:40.616Z,9.308809
2022-11-11T00:03:40.595Z,9.308923
2022-11-11T00:04:40.538Z,9.308999
2022-11-11T00:05:40.599Z,9.308962
2022-11-11T00:06:40.542Z,9.309031
2022-11-11T00:07:41.838Z,9.309031
2022-11-11T00:08:40.416Z,9.309042
2022-11-11T00:09:40.426Z,9.308987
2022-11-11T00:10:40.414Z,9.308992
2022-11-11T00:11:40.544Z,9.308995
2022-11-11T00:12:40.438Z,9.308990
2022-11-11T00:13:40.513Z,9.309002
2022-11-11T00:14:40.502Z,9.309047
2022-11-11T00:15:40.502Z,9.309012
2022-11-11T00:16:40.475Z,9.308933
2022-11-11T00:17:40.504Z,9.308944
2022-11-11T00:18:40.572Z,9.308857
2022-11-11T00:19:40.517Z,9.308589
2022-11-11T00:20:44.392Z,9.308883
2022-11-11T00:21:41.480Z,9.308960
2022-11-11T00:23:01.445Z,9.308965
2022-11-11T00:23:40.419Z,9.309067
2022-11-11T00:24:40.453Z,9.309043
2022-11-11T00:25:40.467Z,9.309054
2022-11-11T00:26:40.894Z,9.309016
2022-11-11T00:28:13.761Z,9.308898
2022-11-11T00:28:40.533Z,9.308937
2022-11-11T00:29:40.499Z,9.309040
2022-11-11T00:30:40.361Z,9.309003
2022-11-11T00:31:40.417Z,9.309025
2022-11-11T00:32:40.293Z,9.308999
2022-11-11T00:33:40.386Z,9.309099
2022-11-11T00:34:40.234Z,9.309003
2022-11-11T00:35:40.375Z,9.308969
2022-11-11T00:36:44.574Z,9.308896
2022-11-11T00:37:40.284Z,9.308957
2022-11-11T00:38:40.303Z,9.308968
2022-11-11T00:39:40.242Z,9.309134
2022-11-11T00:40:40.411Z,9.308877
2022-11-11T00:41:40.234Z,9.308883
2022-11-11T00:42:40.354Z,9.308817
2022-11-11T00:43:40.313Z,9.308732
2022-11-11T00:44:40.222Z,9.308886
2022-11-11T00:45:40.335Z,9.309020
2022-11-11T00:46:40.448Z,9.309235
2022-11-11T00:47:40.203Z,9.309253
2022-11-11T00:48:40.293Z,9.309135
2022-11-11T00:49:40.243Z,9.309107
2022-11-11T00:50:40.238Z,9.309040
2022-11-11T00:51:40.338Z,9.308966
2022-11-11T00:52:40.305Z,9.309045
2022-11-11T00:53:40.211Z,9.308990
2022-11-11T00:54:40.302Z,9.308912
2022-11-11T00:55:40.309Z,9.309268
2022-11-11T00:56:40.131Z,9.308981
2022-11-11T00:57:40.174Z,9.309066
2022-11-11T00:58:40.162Z,9.308917
2022-11-11T00:59:40.164Z,9.308928
2022-11-11T01:00:40.248Z,9.308984
2022-11-11T01:01:40.342Z,9.308908
2022-11-11T01:02:40.263Z,9.308933
2022-11-11T01:03:40.081Z,9.308964
2022-11-11T01:04:40.192Z,9.309031
2022-11-11T01:05:40.102Z,9.309098
2022-11-11T01:06:40.133Z,9.309052
2022-11-11T01:07:40.544Z,9.309053
2022-11-11T01:08:40.386Z,9.308952
2022-11-11T01:09:41.187Z,9.308889
2022-11-11T01:10:40.152Z,9.308942
2022-11-11T01:11:40.079Z,9.309205
2022-11-11T01:12:40.158Z,9.309167
2022-11-11T01:13:40.177Z,9.309039
2022-11-11T01:14:39.938Z,9.308957
2022-11-11T01:15:40.169Z,9.309002
2022-11-11T01:16:40.090Z,9.308975
2022-11-11T01:17:40.131Z,9.308980
2022-11-11T01:18:40.208Z,9.308961
2022-11-11T01:19:40.076Z,9.308928
2022-11-11T01:20:40.094Z,9.308965
2022-11-11T01:21:40.318Z,9.309057
2022-11-11T01:22:39.986Z,9.309089
2022-11-11T01:23:40.041Z,9.309046
2022-11-11T01:24:40.042Z,9.309139
2022-11-11T01:25:39.896Z,9.309118
2022-11-11T01:26:40.925Z,9.309076
2022-11-11T01:27:40.150Z,9.309020
2022-11-11T01:28:40.017Z,9.309058
2022-11-11T01:29:39.999Z,9.308965
2022-11-11T01:30:39.931Z,9.308955
2022-11-11T01:31:39.932Z,9.309183
2022-11-11T01:32:40.096Z,9.309041
2022-11-11T01:33:39.939Z,9.309093
2022-11-11T01:34:40.044Z,9.309124
2022-11-11T01:35:39.916Z,9.309033
2022-11-11T01:36:39.904Z,9.309077
2022-11-11T01:37:40.028Z,9.309125
2022-11-11T01:38:40.872Z,9.308839
2022-11-11T01:39:39.972Z,9.308911
2022-11-11T01:40:39.977Z,9.308950
2022-11-11T01:41:39.957Z,9.309031
2022-11-11T01:42:39.821Z,9.309034
2022-11-11T01:43:39.895Z,9.309032
2022-11-11T01:44:39.955Z,9.308963
2022-11-11T01:45:40.012Z,9.308959
2022-11-11T01:46:39.758Z,9.308895
2022-11-11T01:47:55.803Z,9.309003
2022-11-11T01:48:41.828Z,9.308972
2022-11-11T01:49:39.829Z,9.309095
2022-11-11T01:50:39.762Z,9.309098
2022-11-11T01:51:40.018Z,9.309128
2022-11-11T01:52:40.009Z,9.309125
2022-11-11T01:53:39.809Z,9.309076
2022-11-11T01:54:39.810Z,9.309083
2022-11-11T01:55:39.792Z,9.309259
2022-11-11T01:56:39.860Z,9.309202
2022-11-11T01:57:39.773Z,9.309150
2022-11-11T01:58:39.776Z,9.309191
2022-11-11T01:59:39.914Z,9.309175
2022-11-11T02:00:39.712Z,9.309148
2022-11-11T02:01:39.884Z,9.309146
2022-11-11T02:02:39.850Z,9.309174
2022-11-11T02:03:39.701Z,9.309164
2022-11-11T02:04:39.728Z,9.309169
2022-11-11T02:05:40.718Z,9.309135
2022-11-11T02:06:39.657Z,9.309137
2022-11-11T02:07:39.907Z,9.309113
2022-11-11T02:08:39.766Z,9.309159
2022-11-11T02:09:39.620Z,9.309196
2022-11-11T02:10:39.824Z,9.309124
2022-11-11T02:11:39.774Z,9.309130
2022-11-11T02:12:39.590Z,9.309164
2022-11-11T02:13:39.768Z,9.309174
2022-11-11T02:14:39.773Z,9.309104
2022-11-11T02:15:39.556Z,9.309125
2022-11-11T02:16:39.691Z,9.309196
2022-11-11T02:17:39.554Z,9.309152
2022-11-11T02:18:39.813Z,9.309114
2022-11-11T02:19:39.772Z,9.309048
2022-11-11T02:20:39.925Z,9.309104
2022-11-11T02:21:39.597Z,9.309150
2022-11-11T02:22:39.602Z,9.309131
2022-11-11T02:23:39.792Z,9.309139
2022-11-11T02:24:39.665Z,9.309188
2022-11-11T02:25:39.625Z,9.309110
2022-11-11T02:26:39.600Z,9.309185
2022-11-11T02:27:39.457Z,9.309108
2022-11-11T02:28:39.604Z,9.309170
2022-11-11T02:29:39.773Z,9.309079
2022-11-11T02:30:39.513Z,9.309052
2022-11-11T02:31:39.701Z,9.309124
2022-11-11T02:32:39.469Z,9.309165
2022-11-11T02:33:39.595Z,9.309084
2022-11-11T02:34:39.757Z,9.308979
2022-11-11T02:35:39.645Z,9.308962
2022-11-11T02:36:39.475Z,9.309028
2022-11-11T02:37:39.492Z,9.309072
2022-11-11T02:38:39.451Z,9.309000
2022-11-11T02:40:02.043Z,9.308999
2022-11-11T02:40:41.514Z,9.309044
2022-11-11T02:41:39.598Z,9.308999
2022-11-11T02:42:39.422Z,9.309043
2022-11-11T02:43:41.349Z,9.309165
2022-11-11T02:44:39.432Z,9.309157
2022-11-11T02:45:39.397Z,9.309087
2022-11-11T02:46:39.433Z,9.309136
2022-11-11T02:47:39.561Z,9.309111
2022-11-11T02:48:39.373Z,9.309125
2022-11-11T02:49:39.379Z,9.309108
2022-11-11T02:50:39.470Z,9.309045
2022-11-11T02:51:39.622Z,9.309056
2022-11-11T02:52:39.597Z,9.308972
2022-11-11T02:53:39.412Z,9.308950
2022-11-11T02:54:39.403Z,9.308901
2022-11-11T02:55:39.412Z,9.309027
2022-11-11T02:56:39.401Z,9.309078
2022-11-11T02:57:39.293Z,9.309078
2022-11-11T02:58:39.557Z,9.309016
2022-11-11T02:59:39.373Z,9.309099
2022-11-11T03:00:39.249Z,9.309108
2022-11-11T03:01:39.404Z,9.309072
2022-11-11T03:02:39.456Z,9.309123
2022-11-11T03:03:39.472Z,9.309125
2022-11-11T03:05:12.631Z,9.308949
2022-11-11T03:05:39.370Z,9.308964
2022-11-11T03:10:22.075Z,9.309150
2022-11-11T03:11:21.955Z,9.309104
2022-11-11T03:11:48.787Z,9.309103
2022-11-11T03:13:20.832Z,9.309059
2022-11-11T03:14:22.144Z,9.309070
2022-11-11T03:15:21.740Z,9.309105
2022-11-11T03:15:48.722Z,9.309076
2022-11-11T03:16:48.903Z,9.308698
2022-11-11T03:17:48.943Z,9.308787
2022-11-11T03:18:48.671Z,9.308915
2022-11-11T03:19:48.724Z,9.308987
2022-11-11T03:20:48.665Z,9.309081
2022-11-11T03:22:52.661Z,9.309079
2022-11-11T03:22:55.217Z,9.309059
2022-11-11T03:23:50.677Z,9.308975
2022-11-11T03:24:48.779Z,9.308951
2022-11-11T03:25:48.573Z,9.308926
2022-11-11T03:26:48.626Z,9.308934
2022-11-11T03:27:48.597Z,9.309011
2022-11-11T03:28:48.647Z,9.308966
2022-11-11T03:29:48.470Z,9.309002
2022-11-11T03:30:48.548Z,9.309014
2022-11-11T03:31:48.528Z,9.308961
2022-11-11T03:32:48.541Z,9.309099
2022-11-11T03:33:48.495Z,9.309094
2022-11-11T03:34:48.535Z,9.309075
2022-11-11T03:35:48.510Z,9.309027
2022-11-11T03:36:48.570Z,9.309099
2022-11-11T03:37:48.504Z,9.309123
2022-11-11T03:38:48.582Z,9.308983
2022-11-11T03:39:48.614Z,9.309030
2022-11-11T03:43:48.103Z,9.309025
2022-11-11T03:44:48.083Z,9.308953
2022-11-11T03:45:48.011Z,9.309075
2022-11-11T03:46:48.059Z,9.309090
2022-11-11T03:47:48.015Z,9.308956
2022-11-11T03:48:48.003Z,9.308822
2022-11-11T03:49:47.926Z,9.309064
2022-11-11T03:50:47.988Z,9.309088
2022-11-11T03:51:47.831Z,9.309019
2022-11-11T03:52:47.823Z,9.309007
2022-11-11T03:53:47.948Z,9.308944
2022-11-11T03:56:55.733Z,9.309025
2022-11-11T03:57:55.656Z,9.308949
2022-11-11T03:58:55.796Z,9.308922
2022-11-11T03:59:55.567Z,9.308996
2022-11-11T04:00:55.580Z,9.308969
2022-11-11T04:01:55.632Z,9.309059
2022-11-11T04:02:55.680Z,9.308980
2022-11-11T04:03:55.640Z,9.308933
2022-11-11T04:04:55.654Z,9.309024
2022-11-11T04:05:56.615Z,9.308988
2022-11-11T04:06:55.695Z,9.309167
2022-11-11T04:07:55.646Z,9.309172
2022-11-11T04:08:55.734Z,9.309160
2022-11-11T04:09:55.583Z,9.309134
2022-11-11T04:10:55.556Z,9.309103
2022-11-11T04:11:55.674Z,9.309109
2022-11-11T04:12:55.667Z,9.309095
2022-11-11T04:14:14.413Z,9.309096
2022-11-11T04:14:55.498Z,9.309116
2022-11-11T04:15:55.540Z,9.309094
2022-11-11T04:16:55.445Z,9.309097
2022-11-11T04:17:57.693Z,9.309115
2022-11-11T04:18:56.480Z,9.309044
2022-11-11T04:19:55.840Z,9.309075
2022-11-11T04:20:55.420Z,9.309084
2022-11-11T04:21:55.465Z,9.309111
2022-11-11T04:22:55.455Z,9.309165
2022-11-11T04:23:55.438Z,9.309222
2022-11-11T04:24:55.456Z,9.309175
2022-11-11T04:25:55.540Z,9.309111
2022-11-11T04:26:55.414Z,9.309140
2022-11-11T04:27:55.589Z,9.309149
2022-11-11T04:28:55.491Z,9.309136
2022-11-11T04:29:55.353Z,9.309178
2022-11-11T04:30:55.537Z,9.309118
2022-11-11T04:31:55.503Z,9.309128
2022-11-11T04:32:55.366Z,9.309105
2022-11-11T04:33:55.472Z,9.309082
2022-11-11T04:34:55.423Z,9.309055
2022-11-11T04:35:55.350Z,9.309045
2022-11-11T04:36:55.451Z,9.309031
2022-11-11T04:37:55.450Z,9.309066
2022-11-11T04:38:55.277Z,9.309040
2022-11-11T04:39:55.448Z,9.309039
2022-11-11T04:40:55.449Z,9.309062
2022-11-11T04:42:07.863Z,9.309010
2022-11-11T04:42:57.380Z,9.309119
2022-11-11T04:43:55.367Z,9.309074
2022-11-11T04:44:55.262Z,9.309007
2022-11-11T04:45:55.384Z,9.309076
2022-11-11T04:46:55.384Z,9.309145
2022-11-11T04:47:55.355Z,9.309135
2022-11-11T04:48:55.401Z,9.309121
2022-11-11T04:49:55.324Z,9.309026
2022-11-11T04:50:55.243Z,9.308949
2022-11-11T04:51:55.407Z,9.308980
2022-11-11T04:52:55.359Z,9.308946
2022-11-11T04:53:55.222Z,9.308991
2022-11-11T04:54:55.320Z,9.309049
2022-11-11T04:55:55.257Z,9.309093
2022-11-11T04:56:55.238Z,9.309032
2022-11-11T04:57:55.328Z,9.309008
2022-11-11T04:58:55.365Z,9.309081
2022-11-11T04:59:55.325Z,9.309005
2022-11-11T05:00:55.259Z,9.309027
2022-11-11T05:01:55.215Z,9.309141
2022-11-11T05:02:55.158Z,9.309102
2022-11-11T05:03:55.152Z,9.309012
2022-11-11T05:04:55.182Z,9.309282
2022-11-11T05:05:55.101Z,9.309197
2022-11-11T05:06:59.210Z,9.309130
2022-11-11T05:07:56.185Z,9.309087
2022-11-11T05:08:55.198Z,9.309036
2022-11-11T05:09:55.080Z,9.309095
2022-11-11T05:10:55.200Z,9.309057
2022-11-11T05:11:55.264Z,9.309171
2022-11-11T05:12:55.036Z,9.309216
2022-11-11T05:13:55.232Z,9.309108
2022-11-11T05:14:55.244Z,9.309072
2022-11-11T05:15:55.227Z,9.308915
2022-11-11T05:16:55.137Z,9.309127
2022-11-11T05:17:55.132Z,9.309135
2022-11-11T05:18:55.143Z,9.309123
2022-11-11T05:19:55.122Z,9.308974
2022-11-11T05:20:55.090Z,9.308870
2022-11-11T05:21:55.053Z,9.309042
2022-11-11T05:22:54.989Z,9.309087
2022-11-11T05:23:55.081Z,9.309247
2022-11-11T05:24:55.360Z,9.309099
2022-11-11T05:25:55.025Z,9.309159
2022-11-11T05:26:55.047Z,9.309028
2022-11-11T05:27:54.967Z,9.308947
2022-11-11T05:28:54.964Z,9.308965
2022-11-11T05:29:55.181Z,9.308977
2022-11-11T05:30:55.050Z,9.309105
2022-11-11T05:31:55.060Z,9.309089
2022-11-11T05:32:55.035Z,9.309032
2022-11-11T05:33:54.944Z,9.309002
2022-11-11T05:34:55.032Z,9.309101
2022-11-11T05:35:55.054Z,9.309048
2022-11-11T05:36:54.893Z,9.308904
2022-11-11T05:37:54.941Z,9.308957
2022-11-11T05:38:56.029Z,9.309097
2022-11-11T05:39:54.976Z,9.308995
2022-11-11T05:40:54.998Z,9.309038
2022-11-11T05:41:54.932Z,9.309013
2022-11-11T05:42:55.013Z,9.309040
2022-11-11T05:43:54.928Z,9.309053
2022-11-11T05:44:54.975Z,9.309112
2022-11-11T05:45:54.862Z,9.309099
2022-11-11T05:46:54.921Z,9.309046
2022-11-11T05:47:54.882Z,9.309030
2022-11-11T05:48:54.851Z,9.308967
2022-11-11T05:49:54.800Z,9.309029
2022-11-11T05:50:54.787Z,9.309019
2022-11-11T05:51:54.815Z,9.309030
2022-11-11T05:52:54.789Z,9.308969
2022-11-11T05:53:54.757Z,9.309021
2022-11-11T05:54:54.850Z,9.308990
2022-11-11T05:55:54.888Z,9.309048
2022-11-11T05:56:54.911Z,9.308979
2022-11-11T05:57:54.726Z,9.308890
2022-11-11T05:58:54.821Z,9.308938
2022-11-11T05:59:54.906Z,9.308864
2022-11-11T06:00:54.743Z,9.308926
2022-11-11T06:01:54.755Z,9.308959
2022-11-11T06:02:55.379Z,9.308936
2022-11-11T06:03:55.023Z,9.308919
2022-11-11T06:04:55.075Z,9.308984
2022-11-11T06:05:55.076Z,9.308710
2022-11-11T06:06:55.209Z,9.308881
2022-11-11T06:07:55.172Z,9.308837
2022-11-11T06:08:55.304Z,9.308955
2022-11-11T06:09:55.087Z,9.308800
2022-11-11T06:10:55.032Z,9.308926
2022-11-11T06:11:54.897Z,9.308940
2022-11-11T06:12:54.989Z,9.308970
2022-11-11T06:13:55.127Z,9.308926
2022-11-11T06:14:54.970Z,9.309015
2022-11-11T06:15:55.108Z,9.309114
2022-11-11T06:16:55.390Z,9.309028
2022-11-11T06:17:55.047Z,9.309195
2022-11-11T06:18:55.056Z,9.309130
2022-11-11T06:19:55.130Z,9.309032
2022-11-11T06:20:56.337Z,9.309208
2022-11-11T06:21:54.847Z,9.309212
2022-11-11T06:22:55.136Z,9.308897
2022-11-11T06:23:54.908Z,9.309081
2022-11-11T06:24:54.788Z,9.309002
2022-11-11T06:25:54.866Z,9.309018
2022-11-11T06:26:54.819Z,9.309137
2022-11-11T06:27:54.849Z,9.309140
2022-11-11T06:28:54.737Z,9.309095
2022-11-11T06:30:13.375Z,9.309067
2022-11-11T06:30:56.797Z,9.309035
2022-11-11T06:31:54.915Z,9.309016
2022-11-11T06:32:54.766Z,9.308981
2022-11-11T06:33:54.824Z,9.309069
2022-11-11T06:34:54.712Z,9.309147
2022-11-11T06:35:54.796Z,9.309181
2022-11-11T06:36:54.779Z,9.309174
2022-11-11T06:37:54.849Z,9.309067
2022-11-11T06:38:54.841Z,9.309148
2022-11-11T06:39:54.641Z,9.309047
2022-11-11T06:40:57.971Z,9.309196
2022-11-11T06:41:54.750Z,9.309227
2022-11-11T06:42:54.798Z,9.309218
2022-11-11T06:43:54.719Z,9.309156
2022-11-11T07:43:49.318Z,9.309181
2022-11-11T07:44:49.598Z,9.309128
2022-11-11T07:45:50.802Z,9.309082
2022-11-11T08:04:19.606Z,9.309117
2022-11-11T08:05:19.336Z,9.309102
2022-11-11T08:06:19.284Z,9.309139
2022-11-11T08:07:22.922Z,9.309089
2022-11-11T08:08:20.197Z,9.309134
2022-11-11T08:09:19.244Z,9.309080
2022-11-11T08:10:19.231Z,9.309086
2022-11-11T08:11:19.217Z,9.309080
2022-11-11T08:12:22.093Z,9.309082
2022-11-11T08:13:20.261Z,9.309096
2022-11-11T08:14:20.156Z,9.309126
2022-11-11T08:15:19.160Z,9.309049
2022-11-11T08:16:19.295Z,9.309045
2022-11-11T08:17:19.132Z,9.309144
2022-11-11T08:18:19.160Z,9.309078
2022-11-11T08:19:19.270Z,9.309095
2022-11-11T08:20:19.362Z,9.309105
2022-11-11T08:21:19.199Z,9.309129
2022-11-11T08:22:19.197Z,9.309132
2022-11-11T08:25:21.127Z,9.309205
2022-11-11T08:26:20.436Z,9.309031
2022-11-11T08:27:19.238Z,9.309072
2022-11-11T08:28:19.090Z,9.309098
2022-11-11T08:29:19.749Z,9.309140
2022-11-11T08:30:19.348Z,9.309100
2022-11-11T08:31:19.409Z,9.309081
2022-11-11T08:32:19.556Z,9.309132
2022-11-11T08:33:44.410Z,9.309081
2022-11-11T08:34:21.027Z,9.309074
2022-11-11T08:35:18.983Z,9.309090
2022-11-11T08:36:21.047Z,9.309139
2022-11-11T08:37:19.955Z,9.309084
2022-11-11T08:38:18.875Z,9.309100
2022-11-11T08:39:19.016Z,9.309058
2022-11-11T08:40:19.203Z,9.309127
2022-11-11T08:41:18.990Z,9.309022
2022-11-11T08:42:19.170Z,9.309033
2022-11-11T08:43:19.057Z,9.309111
2022-11-11T08:44:18.932Z,9.309099
2022-11-11T08:45:19.176Z,9.309083
2022-11-11T08:46:20.087Z,9.309101
2022-11-11T08:47:18.941Z,9.309097
2022-11-11T08:48:18.996Z,9.309069
2022-11-11T08:49:19.057Z,9.309158
2022-11-11T08:50:18.930Z,9.309125
2022-11-11T08:51:19.027Z,9.309135
2022-11-11T08:52:18.955Z,9.309082
2022-11-11T08:53:18.979Z,9.309075
2022-11-11T08:54:18.987Z,9.309066
2022-11-11T08:55:18.905Z,9.309050
2022-11-11T08:56:18.993Z,9.309072
2022-11-11T08:57:18.822Z,9.309045
2022-11-11T08:58:20.004Z,9.309076
